createdAt,value
2017-05-01T00:00:10.781Z,59.80
2017-05-01T00:02:37.782Z,60.00
2017-05-01T00:05:04.955Z,60.10
2017-05-01T00:07:32.687Z,60.20
2017-05-01T00:09:59.702Z,60.10
2017-05-01T00:12:26.728Z,60.30
2017-05-01T00:14:53.725Z,60.20
2017-05-01T00:17:20.719Z,60.00
2017-05-01T00:19:47.778Z,60.10
2017-05-01T00:22:14.776Z,59.90
2017-05-01T00:24:41.776Z,60.10
2017-05-01T00:27:10.363Z,60.80
2017-05-01T00:29:37.363Z,61.50
2017-05-01T00:32:04.397Z,62.30
2017-05-01T00:34:31.379Z,62.80
2017-05-01T00:36:58.412Z,63.20
2017-05-01T00:39:27.102Z,63.40
2017-05-01T00:41:54.876Z,63.70
2017-05-01T00:44:21.941Z,63.60
2017-05-01T00:46:48.979Z,63.90
2017-05-01T00:49:16.066Z,63.60
2017-05-01T00:51:43.115Z,64.10
2017-05-01T00:54:10.108Z,63.80
2017-05-01T00:56:37.222Z,64.30
2017-05-01T00:59:04.263Z,63.90
2017-05-01T01:01:31.272Z,63.60
2017-05-01T01:03:58.275Z,63.50
2017-05-01T01:06:25.328Z,63.30
2017-05-01T01:08:53.227Z,63.50
2017-05-01T01:11:26.265Z,64.10
2017-05-01T01:13:53.316Z,64.00
2017-05-01T01:16:20.368Z,64.20
2017-05-01T01:18:47.392Z,64.50
2017-05-01T01:21:14.414Z,64.70
2017-05-01T01:23:41.532Z,64.30
2017-05-01T01:26:09.367Z,64.90
2017-05-01T01:28:36.355Z,64.50
2017-05-01T01:31:03.470Z,64.70
2017-05-01T01:33:30.515Z,64.70
2017-05-01T01:35:57.628Z,65.10
2017-05-01T01:38:24.711Z,65.10
2017-05-01T01:40:51.773Z,65.30
2017-05-01T01:43:18.865Z,65.80
2017-05-01T01:45:45.960Z,65.80
2017-05-01T01:48:13.039Z,67.90
2017-05-01T01:50:40.131Z,68.10
2017-05-01T01:53:07.219Z,70.30
2017-05-01T01:55:35.015Z,70.40
2017-05-01T01:58:02.124Z,70.10
2017-05-01T02:00:29.185Z,71.10
2017-05-01T02:02:57.017Z,71.90
2017-05-01T02:05:25.960Z,72.90
2017-05-01T02:07:53.013Z,72.50
2017-05-01T02:10:20.064Z,72.00
2017-05-01T02:12:47.161Z,71.30
2017-05-01T02:15:14.227Z,70.60
2017-05-01T02:17:42.049Z,69.90
2017-05-01T02:20:09.153Z,70.00
2017-05-01T02:22:36.245Z,70.00
2017-05-01T02:25:03.287Z,69.70
2017-05-01T02:27:30.396Z,69.90
2017-05-01T02:29:57.442Z,70.10
2017-05-01T02:32:24.552Z,70.20
2017-05-01T02:34:51.613Z,70.50
2017-05-01T02:37:18.746Z,70.80
2017-05-01T02:39:45.815Z,71.50
2017-05-01T02:42:13.675Z,70.60
2017-05-01T02:44:40.723Z,71.10
2017-05-01T02:47:07.807Z,71.10
2017-05-01T02:49:34.900Z,71.40
2017-05-01T02:52:01.949Z,71.40
2017-05-01T02:54:29.027Z,71.60
2017-05-01T02:56:56.121Z,71.50
2017-05-01T02:59:23.171Z,73.00
2017-05-01T03:01:50.285Z,73.60
2017-05-01T03:04:17.334Z,73.00
2017-05-01T03:06:44.415Z,73.00
2017-05-01T03:09:11.548Z,72.80
2017-05-01T03:11:38.611Z,72.50
2017-05-01T03:14:05.670Z,72.50
2017-05-01T03:16:32.766Z,72.30
2017-05-01T03:18:59.880Z,73.20
2017-05-01T03:21:26.871Z,73.70
2017-05-01T03:23:53.911Z,74.50
2017-05-01T03:26:20.966Z,74.30
2017-05-01T03:28:47.970Z,74.80
2017-05-01T03:31:15.060Z,74.50
2017-05-01T03:33:42.080Z,75.10
2017-05-01T03:36:09.855Z,75.60
2017-05-01T03:38:37.681Z,75.10
2017-05-01T03:41:04.681Z,75.80
2017-05-01T03:43:31.685Z,76.00
2017-05-01T03:45:58.685Z,76.30
2017-05-01T03:48:25.712Z,76.50
2017-05-01T03:50:52.740Z,77.70
2017-05-01T03:53:20.518Z,77.60
2017-05-01T03:55:48.274Z,77.60
2017-05-01T03:58:16.002Z,78.40
2017-05-01T04:00:43.029Z,78.30
2017-05-01T04:03:10.098Z,79.00
2017-05-01T04:05:37.067Z,78.20
2017-05-01T04:08:04.812Z,76.50
2017-05-01T04:10:31.855Z,77.20
2017-05-01T04:12:58.871Z,78.10
2017-05-01T04:15:25.884Z,78.50
2017-05-01T04:17:53.677Z,78.80
2017-05-01T04:20:20.715Z,78.40
2017-05-01T04:22:47.707Z,78.50
2017-05-01T04:25:14.751Z,78.50
2017-05-01T04:27:41.805Z,78.70
2017-05-01T04:30:08.819Z,78.40
2017-05-01T04:32:35.862Z,78.40
2017-05-01T04:35:02.848Z,78.50
2017-05-01T04:37:29.876Z,79.10
2017-05-01T04:39:56.930Z,79.10
2017-05-01T04:42:23.989Z,79.20
2017-05-01T04:44:51.020Z,79.20
2017-05-01T04:47:18.039Z,79.20
2017-05-01T04:49:45.041Z,79.40
2017-05-01T04:52:12.091Z,79.50
2017-05-01T04:54:39.091Z,79.80
2017-05-01T04:57:06.100Z,80.00
2017-05-01T04:59:33.158Z,79.90
2017-05-01T05:02:05.378Z,79.90
2017-05-01T05:04:33.043Z,80.20
2017-05-01T05:07:00.064Z,80.70
2017-05-01T05:09:27.623Z,80.30
2017-05-01T05:11:54.699Z,80.30
2017-05-01T05:14:21.714Z,80.40
2017-05-01T05:16:48.720Z,80.60
2017-05-01T05:19:15.771Z,80.60
2017-05-01T05:21:42.775Z,80.40
2017-05-01T05:24:09.772Z,79.90
2017-05-01T05:26:36.895Z,79.20
2017-05-01T05:29:04.631Z,78.70
2017-05-01T05:31:31.640Z,79.30
2017-05-01T05:33:58.717Z,78.80
2017-05-01T05:36:25.730Z,78.50
2017-05-01T05:38:52.825Z,78.30
2017-05-01T05:41:19.874Z,78.50
2017-05-01T05:43:46.898Z,78.50
2017-05-01T05:46:15.498Z,77.80
2017-05-01T05:48:42.545Z,78.40
2017-05-01T05:51:09.649Z,78.50
2017-05-01T05:53:36.675Z,79.00
2017-05-01T05:56:03.715Z,78.80
2017-05-01T05:58:31.488Z,79.00
2017-05-01T06:00:59.279Z,79.40
2017-05-01T06:03:26.288Z,78.90
2017-05-01T06:05:54.084Z,78.40
2017-05-01T06:08:21.137Z,79.00
2017-05-01T06:10:48.144Z,79.00
2017-05-01T06:13:15.885Z,79.10
2017-05-01T06:15:42.973Z,78.70
2017-05-01T06:18:10.691Z,78.70
2017-05-01T06:20:37.698Z,78.60
2017-05-01T06:23:04.951Z,78.30
2017-05-01T06:25:31.954Z,78.00
2017-05-01T06:27:58.939Z,78.10
2017-05-01T06:30:26.004Z,77.70
2017-05-01T06:32:53.039Z,78.20
2017-05-01T06:35:20.073Z,77.90
2017-05-01T06:37:47.098Z,77.90
2017-05-01T06:40:14.862Z,77.50
2017-05-01T06:42:42.627Z,78.50
2017-05-01T06:45:10.432Z,78.90
2017-05-01T06:47:37.477Z,79.40
2017-05-01T06:50:04.467Z,79.50
2017-05-01T06:52:31.513Z,79.20
2017-05-01T06:54:58.501Z,79.40
2017-05-01T06:57:25.493Z,78.60
2017-05-01T06:59:52.576Z,77.60
2017-05-01T07:02:20.303Z,76.90
2017-05-01T07:04:47.317Z,77.80
2017-05-01T07:07:14.563Z,79.20
2017-05-01T07:09:41.596Z,79.90
2017-05-01T07:12:08.635Z,80.10
2017-05-01T07:14:36.399Z,80.70
2017-05-01T07:17:04.239Z,80.00
2017-05-01T07:19:31.336Z,81.30
2017-05-01T07:21:58.414Z,81.70
2017-05-01T07:24:25.391Z,82.00
2017-05-01T07:26:52.421Z,82.70
2017-05-01T07:29:19.528Z,82.80
2017-05-01T07:31:46.524Z,82.80
2017-05-01T07:34:13.569Z,83.80
2017-05-01T07:36:40.598Z,84.50
2017-05-01T07:39:07.691Z,84.90
2017-05-01T07:41:35.427Z,85.90
2017-05-01T07:44:02.470Z,85.90
2017-05-01T07:46:29.526Z,85.80
2017-05-01T07:48:56.533Z,85.20
2017-05-01T07:51:23.572Z,85.60
2017-05-01T07:53:50.560Z,86.10
2017-05-01T07:56:17.632Z,85.00
2017-05-01T07:58:45.401Z,85.20
2017-05-01T08:01:12.469Z,85.20
2017-05-01T08:03:39.510Z,86.50
2017-05-01T08:06:06.576Z,85.30
2017-05-01T08:08:33.591Z,84.80
2017-05-01T08:11:00.609Z,84.40
2017-05-01T08:13:27.707Z,85.20
2017-05-01T08:15:54.749Z,84.80
2017-05-01T08:18:21.775Z,85.40
2017-05-01T08:20:49.574Z,84.40
2017-05-01T08:23:16.648Z,85.10
2017-05-01T08:25:43.738Z,83.60
2017-05-01T08:28:10.760Z,82.60
2017-05-01T08:30:37.833Z,83.40
2017-05-01T08:33:04.878Z,83.10
2017-05-01T08:35:31.866Z,83.70
2017-05-01T08:37:58.904Z,85.00
2017-05-01T08:40:25.991Z,84.70
2017-05-01T08:42:53.022Z,85.20
2017-05-01T08:45:20.007Z,84.00
2017-05-01T08:47:47.023Z,82.10
2017-05-01T08:50:14.119Z,82.70
2017-05-01T08:52:41.206Z,81.30
2017-05-01T08:55:08.261Z,83.60
2017-05-01T08:57:35.308Z,83.90
2017-05-01T09:00:02.369Z,81.20
2017-05-01T09:02:29.423Z,82.10
2017-05-01T09:04:56.471Z,83.50
2017-05-01T09:07:23.541Z,82.70
2017-05-01T09:09:50.592Z,83.90
2017-05-01T09:12:17.660Z,83.00
2017-05-01T09:14:44.730Z,85.10
2017-05-01T09:17:11.760Z,85.40
2017-05-01T09:19:38.805Z,86.20
2017-05-01T09:22:05.883Z,83.60
2017-05-01T09:24:32.935Z,84.40
2017-05-01T09:26:59.962Z,84.20
2017-05-01T09:29:27.049Z,85.60
2017-05-01T09:31:54.079Z,85.40
2017-05-01T09:34:21.130Z,83.90
2017-05-01T09:36:48.139Z,83.80
2017-05-01T09:39:15.179Z,84.60
2017-05-01T09:41:42.221Z,84.40
2017-05-01T09:44:09.269Z,82.40
2017-05-01T09:46:36.346Z,81.70
2017-05-01T09:49:03.441Z,82.10
2017-05-01T09:51:30.452Z,83.70
2017-05-01T09:53:57.489Z,83.60
2017-05-01T09:56:24.553Z,84.60
2017-05-01T09:58:51.631Z,85.60
2017-05-01T10:01:18.685Z,83.90
2017-05-01T10:03:45.722Z,82.40
2017-05-01T10:06:13.531Z,80.80
2017-05-01T10:08:43.053Z,81.10
2017-05-01T10:11:10.111Z,81.10
2017-05-01T10:13:37.217Z,79.40
2017-05-01T10:16:04.259Z,80.80
2017-05-01T10:18:31.342Z,82.80
2017-05-01T10:20:58.520Z,84.20
2017-05-01T10:23:26.264Z,81.70
2017-05-01T10:25:53.337Z,77.80
2017-05-01T10:28:21.185Z,80.00
2017-05-01T10:30:48.231Z,78.90
2017-05-01T10:33:15.248Z,80.40
2017-05-01T10:35:42.337Z,79.60
2017-05-01T10:38:10.207Z,79.40
2017-05-01T10:40:38.004Z,80.50
2017-05-01T10:43:05.052Z,81.70
2017-05-01T10:45:32.125Z,80.70
2017-05-01T10:47:59.185Z,82.70
2017-05-01T10:50:26.541Z,80.90
2017-05-01T10:52:53.635Z,81.70
2017-05-01T10:55:20.674Z,80.80
2017-05-01T10:57:48.454Z,80.00
2017-05-01T11:00:15.522Z,78.90
2017-05-01T11:02:42.576Z,81.00
2017-05-01T11:05:09.620Z,77.90
2017-05-01T11:07:36.688Z,79.10
2017-05-01T11:10:03.723Z,81.80
2017-05-01T11:12:30.799Z,79.30
2017-05-01T11:14:58.649Z,80.70
2017-05-01T11:17:25.699Z,80.50
2017-05-01T11:19:52.739Z,80.60
2017-05-01T11:22:19.860Z,80.60
2017-05-01T11:24:46.923Z,80.00
2017-05-01T11:27:13.961Z,80.30
2017-05-01T11:29:41.024Z,80.30
2017-05-01T11:32:08.102Z,80.80
2017-05-01T11:34:35.876Z,79.20
2017-05-01T11:37:02.959Z,77.80
2017-05-01T11:39:30.012Z,79.60
2017-05-01T11:41:57.033Z,77.20
2017-05-01T11:44:24.205Z,78.00
2017-05-01T11:46:51.236Z,77.20
2017-05-01T11:49:18.280Z,75.10
2017-05-01T11:51:45.344Z,75.70
2017-05-01T11:54:12.419Z,75.60
2017-05-01T11:56:39.526Z,77.50
2017-05-01T11:59:06.558Z,75.60
2017-05-01T12:01:34.350Z,77.20
2017-05-01T12:04:05.744Z,77.70
2017-05-01T12:06:34.047Z,76.90
2017-05-01T12:09:01.868Z,79.00
2017-05-01T12:11:28.907Z,79.70
2017-05-01T12:13:55.912Z,79.20
2017-05-01T12:16:22.980Z,80.50
2017-05-01T12:18:50.009Z,78.30
2017-05-01T12:21:17.008Z,79.20
2017-05-01T12:23:44.083Z,79.70
2017-05-01T12:26:11.109Z,80.10
2017-05-01T12:28:38.161Z,77.20
2017-05-01T12:31:05.209Z,79.30
2017-05-01T12:33:32.259Z,79.50
2017-05-01T12:35:59.339Z,78.60
2017-05-01T12:38:26.388Z,80.40
2017-05-01T12:40:53.393Z,80.20
2017-05-01T12:43:20.553Z,78.50
2017-05-01T12:45:47.590Z,78.30
2017-05-01T12:48:14.672Z,78.80
2017-05-01T12:50:41.734Z,79.10
2017-05-01T12:53:08.837Z,79.10
2017-05-01T12:55:35.909Z,79.40
2017-05-01T12:58:03.699Z,79.90
2017-05-01T13:00:30.712Z,79.40
2017-05-01T13:02:58.498Z,78.60
2017-05-01T13:05:25.610Z,79.60
2017-05-01T13:07:52.683Z,78.80
2017-05-01T13:10:20.479Z,81.30
2017-05-01T13:12:47.627Z,81.40
2017-05-01T13:15:14.679Z,80.90
2017-05-01T13:17:41.713Z,79.60
2017-05-01T13:20:08.788Z,78.80
2017-05-01T13:22:35.803Z,77.90
2017-05-01T13:25:02.827Z,78.80
2017-05-01T13:27:30.617Z,79.80
2017-05-01T13:29:57.655Z,80.70
2017-05-01T13:32:24.685Z,80.80
2017-05-01T13:34:52.490Z,81.70
2017-05-01T13:37:19.554Z,81.00
2017-05-01T13:39:46.602Z,82.10
2017-05-01T13:42:13.634Z,81.90
2017-05-01T13:44:40.689Z,81.00
2017-05-01T13:47:07.742Z,82.70
2017-05-01T13:49:34.762Z,81.10
2017-05-01T13:52:01.799Z,82.20
2017-05-01T13:54:28.874Z,83.20
2017-05-01T13:56:55.903Z,81.60
2017-05-01T13:59:22.972Z,81.50
2017-05-01T14:01:50.011Z,79.50
2017-05-01T14:04:17.035Z,80.50
2017-05-01T14:06:44.103Z,81.90
2017-05-01T14:09:11.137Z,80.30
2017-05-01T14:11:38.157Z,82.30
2017-05-01T14:14:05.930Z,82.20
2017-05-01T14:16:33.036Z,83.60
2017-05-01T14:19:00.136Z,86.00
2017-05-01T14:21:27.183Z,84.50
2017-05-01T14:23:54.227Z,84.10
2017-05-01T14:26:21.280Z,82.20
2017-05-01T14:28:48.327Z,82.90
2017-05-01T14:31:15.367Z,81.50
2017-05-01T14:33:42.409Z,82.60
2017-05-01T14:36:09.456Z,85.80
2017-05-01T14:38:36.514Z,83.80
2017-05-01T14:41:03.529Z,84.20
2017-05-01T14:43:31.350Z,84.60
2017-05-01T14:45:58.406Z,84.10
2017-05-01T14:48:25.466Z,84.50
2017-05-01T14:50:52.521Z,85.60
2017-05-01T14:53:19.541Z,84.30
2017-05-01T14:55:46.547Z,84.30
2017-05-01T14:58:13.625Z,85.30
2017-05-01T15:00:40.694Z,83.90
2017-05-01T15:03:07.837Z,86.10
2017-05-01T15:05:34.898Z,83.60
2017-05-01T15:08:01.952Z,84.50
2017-05-01T15:10:29.029Z,85.70
2017-05-01T15:12:56.804Z,85.20
2017-05-01T15:15:23.819Z,85.90
2017-05-01T15:17:51.279Z,86.60
2017-05-01T15:20:18.326Z,87.40
2017-05-01T15:22:45.475Z,86.20
2017-05-01T15:25:12.526Z,86.50
2017-05-01T15:27:39.618Z,86.10
2017-05-01T15:30:06.676Z,84.50
2017-05-01T15:32:33.762Z,84.90
2017-05-01T15:35:00.783Z,84.20
2017-05-01T15:37:27.781Z,85.50
2017-05-01T15:39:54.851Z,85.00
2017-05-01T15:42:21.868Z,84.60
2017-05-01T15:44:49.639Z,86.10
2017-05-01T15:47:16.734Z,84.40
2017-05-01T15:49:43.736Z,84.10
2017-05-01T15:52:10.770Z,84.20
2017-05-01T15:54:38.636Z,82.60
2017-05-01T15:57:06.406Z,81.30
2017-05-01T15:59:34.234Z,79.30
2017-05-01T16:02:01.290Z,82.80
2017-05-01T16:04:28.305Z,83.80
2017-05-01T16:06:55.403Z,84.50
2017-05-01T16:09:22.459Z,84.40
2017-05-01T16:11:50.212Z,84.10
2017-05-01T16:14:17.973Z,85.70
2017-05-01T16:16:44.997Z,86.00
2017-05-01T16:19:12.060Z,85.50
2017-05-01T16:21:39.105Z,86.60
2017-05-01T16:24:06.905Z,88.20
2017-05-01T16:26:33.959Z,87.00
2017-05-01T16:29:00.967Z,86.20
2017-05-01T16:31:27.977Z,86.80
2017-05-01T16:33:55.030Z,87.10
2017-05-01T16:36:22.043Z,88.30
2017-05-01T16:38:49.084Z,88.70
2017-05-01T16:41:16.150Z,88.30
2017-05-01T16:43:43.202Z,87.50
2017-05-01T16:46:10.209Z,87.60
2017-05-01T16:48:37.952Z,88.60
2017-05-01T16:51:05.009Z,87.10
2017-05-01T16:53:32.786Z,87.10
2017-05-01T16:56:00.564Z,86.40
2017-05-01T16:58:27.575Z,84.30
2017-05-01T17:00:54.593Z,84.90
2017-05-01T17:03:21.591Z,82.90
2017-05-01T17:05:49.329Z,85.10
2017-05-01T17:08:16.419Z,86.40
2017-05-01T17:10:43.451Z,87.50
2017-05-01T17:13:11.293Z,89.30
2017-05-01T17:15:38.302Z,90.50
2017-05-01T17:18:05.348Z,90.80
2017-05-01T17:20:32.360Z,90.90
2017-05-01T17:22:59.464Z,90.20
2017-05-01T17:25:26.519Z,88.20
2017-05-01T17:27:53.565Z,87.70
2017-05-01T17:30:20.626Z,87.90
2017-05-01T17:32:47.652Z,88.20
2017-05-01T17:35:14.701Z,88.10
2017-05-01T17:37:41.801Z,89.60
2017-05-01T17:40:08.897Z,89.30
2017-05-01T17:42:36.894Z,90.20
2017-05-01T17:45:03.986Z,90.30
2017-05-01T17:47:31.019Z,90.60
2017-05-01T17:49:58.094Z,90.90
2017-05-01T17:52:25.159Z,91.10
2017-05-01T17:54:52.197Z,90.50
2017-05-01T17:57:19.260Z,89.90
2017-05-01T17:59:46.289Z,90.00
2017-05-01T18:02:13.290Z,90.10
2017-05-01T18:04:40.391Z,90.00
2017-05-01T18:07:07.507Z,90.20
2017-05-01T18:09:34.566Z,89.80
2017-05-01T18:12:01.608Z,88.70
2017-05-01T18:14:28.679Z,90.10
2017-05-01T18:16:55.674Z,90.10
2017-05-01T18:19:22.695Z,89.30
2017-05-01T18:21:49.780Z,90.00
2017-05-01T18:24:16.842Z,89.90
2017-05-01T18:26:43.904Z,90.10
2017-05-01T18:29:10.909Z,90.40
2017-05-01T18:31:37.929Z,90.30
2017-05-01T18:34:04.947Z,89.90
2017-05-01T18:36:32.022Z,89.90
2017-05-01T18:38:59.030Z,90.40
2017-05-01T18:41:26.013Z,90.50
2017-05-01T18:43:53.086Z,90.50
2017-05-01T18:46:20.115Z,90.60
2017-05-01T18:48:47.909Z,90.90
2017-05-01T18:51:15.020Z,90.90
2017-05-01T18:53:42.142Z,90.50
2017-05-01T18:56:09.286Z,90.70
2017-05-01T18:58:36.737Z,90.80
2017-05-01T19:01:03.813Z,90.90
2017-05-01T19:03:31.051Z,90.50
2017-05-01T19:05:58.091Z,90.30
2017-05-01T19:08:25.143Z,90.20
2017-05-01T19:10:52.443Z,90.10
2017-05-01T19:13:19.655Z,90.60
2017-05-01T19:15:46.748Z,90.70
2017-05-01T19:18:14.003Z,90.50
2017-05-01T19:20:41.207Z,91.00
2017-05-01T19:23:08.419Z,90.70
2017-05-01T19:25:35.504Z,90.70
2017-05-01T19:28:02.643Z,90.50
2017-05-01T19:30:29.699Z,90.80
2017-05-01T19:32:57.011Z,90.90
2017-05-01T19:35:24.107Z,91.00
2017-05-01T19:37:51.374Z,91.20
2017-05-01T19:40:19.460Z,91.50
2017-05-01T19:42:46.569Z,91.20
2017-05-01T19:45:13.779Z,91.00
2017-05-01T19:47:40.827Z,90.80
2017-05-01T19:50:08.042Z,90.90
2017-05-01T19:52:35.113Z,91.10
2017-05-01T19:55:02.201Z,91.10
2017-05-01T19:57:29.287Z,91.10
2017-05-01T19:59:57.101Z,90.90
2017-05-01T20:02:24.190Z,91.30
2017-05-01T20:04:51.200Z,91.20
2017-05-01T20:07:18.238Z,91.30
2017-05-01T20:09:45.245Z,91.30
2017-05-01T20:12:13.052Z,91.30
2017-05-01T20:14:40.067Z,90.90
2017-05-01T20:17:07.817Z,91.50
2017-05-01T20:19:34.900Z,91.00
2017-05-01T20:22:01.924Z,90.50
2017-05-01T20:24:29.732Z,90.30
2017-05-01T20:26:56.796Z,91.10
2017-05-01T20:29:23.843Z,91.10
2017-05-01T20:31:50.919Z,90.80
2017-05-01T20:34:18.663Z,90.50
2017-05-01T20:36:45.654Z,90.40
2017-05-01T20:39:12.671Z,90.50
2017-05-01T20:41:39.692Z,90.60
2017-05-01T20:44:06.702Z,90.40
2017-05-01T20:46:33.763Z,90.60
2017-05-01T20:49:00.812Z,90.40
2017-05-01T20:51:27.844Z,90.50
2017-05-01T20:53:54.937Z,90.80
2017-05-01T20:56:21.952Z,91.00
2017-05-01T20:58:48.983Z,91.10
2017-05-01T21:01:16.067Z,91.30
2017-05-01T21:03:43.070Z,91.40
2017-05-01T21:06:10.117Z,91.40
2017-05-01T21:08:37.185Z,91.30
2017-05-01T21:11:04.214Z,91.30
2017-05-01T21:13:31.284Z,90.90
2017-05-01T21:15:58.356Z,90.80
2017-05-01T21:18:25.413Z,90.70
2017-05-01T21:20:52.444Z,90.30
2017-05-01T21:23:19.538Z,90.60
2017-05-01T21:25:47.581Z,90.60
2017-05-01T21:28:14.631Z,90.40
2017-05-01T21:30:41.675Z,90.50
2017-05-01T21:33:08.716Z,90.50
2017-05-01T21:35:35.735Z,90.90
2017-05-01T21:38:02.775Z,91.10
2017-05-01T21:40:29.796Z,90.80
2017-05-01T21:42:56.869Z,90.80
2017-05-01T21:45:23.960Z,90.70
2017-05-01T21:47:51.001Z,90.80
2017-05-01T21:50:18.049Z,91.00
2017-05-01T21:52:45.070Z,90.80
2017-05-01T21:55:12.120Z,90.90
2017-05-01T21:57:39.172Z,90.90
2017-05-01T22:00:06.185Z,91.00
2017-05-01T22:02:33.238Z,91.00
2017-05-01T22:05:00.291Z,91.00
2017-05-01T22:07:27.304Z,91.10
2017-05-01T22:09:55.069Z,91.20
2017-05-01T22:12:22.091Z,91.00
2017-05-01T22:14:49.087Z,91.00
2017-05-01T22:17:16.140Z,91.10
2017-05-01T22:19:43.209Z,91.20
2017-05-01T22:22:10.213Z,91.30
2017-05-01T22:24:37.223Z,91.40
2017-05-01T22:27:04.270Z,91.20
2017-05-01T22:29:31.271Z,91.10
2017-05-01T22:31:58.321Z,91.20
2017-05-01T22:34:25.373Z,91.10
2017-05-01T22:36:52.377Z,91.40
2017-05-01T22:39:20.201Z,91.20
2017-05-01T22:41:47.258Z,91.20
2017-05-01T22:44:14.236Z,91.20
2017-05-01T22:46:42.012Z,91.00
2017-05-01T22:49:09.807Z,91.50
2017-05-01T22:51:36.840Z,91.20
2017-05-01T22:54:03.895Z,91.20
2017-05-01T22:56:30.956Z,91.20
2017-05-01T22:58:58.005Z,91.30
2017-05-01T23:01:25.084Z,91.20
2017-05-01T23:03:52.137Z,91.40
2017-05-01T23:06:19.894Z,91.60
2017-05-01T23:08:46.905Z,92.10
2017-05-01T23:11:13.953Z,91.50
2017-05-01T23:13:41.014Z,91.60
2017-05-01T23:16:08.015Z,91.80
2017-05-01T23:18:37.929Z,91.90
2017-05-01T23:21:04.990Z,91.70
2017-05-01T23:23:32.016Z,91.70
2017-05-01T23:25:59.062Z,91.70
2017-05-01T23:28:26.765Z,91.60
2017-05-01T23:30:53.783Z,91.60
2017-05-01T23:33:20.896Z,91.60
2017-05-01T23:35:48.695Z,91.70
2017-05-01T23:38:15.719Z,91.60
2017-05-01T23:40:42.764Z,91.60
2017-05-01T23:43:10.576Z,91.90
2017-05-01T23:45:37.589Z,91.60
2017-05-01T23:48:04.595Z,91.60
2017-05-01T23:50:31.646Z,91.60
2017-05-01T23:52:58.666Z,91.90
2017-05-01T23:55:25.670Z,92.10
2017-05-01T23:57:53.456Z,92.00
